Time;durP1;ratioP1;P1;durP2;ratioP2;P2;SDS_P1;SDS_P2;PMS_P1;PMS_P2;Temp;Humidity;BMP_temperature;BMP_pressure;BME280_temperature;BME280_humidity;BME280_pressure;Samples;Min_cycle;Max_cycle;Signal;HPM_P1;HPM_P2
2022/07/04 00:00:48;;;;;;;4.35;1.92;;;13.00;99.90;;;;;;5017591;28;20082;-74
2022/07/04 00:03:13;;;;;;;3.97;1.95;;;12.90;99.90;;;;;;5021274;28;20029;-74
2022/07/04 00:05:39;;;;;;;6.00;1.42;;;12.90;99.90;;;;;;5019052;28;20037;-74
2022/07/04 00:08:04;;;;;;;3.92;1.98;;;12.90;99.90;;;;;;5018753;28;20041;-74
2022/07/04 00:10:30;;;;;;;4.38;2.03;;;12.90;99.90;;;;;;5018672;28;20029;-74
2022/07/04 00:12:56;;;;;;;3.95;2.25;;;12.90;99.90;;;;;;5021021;28;20784;-75
2022/07/04 00:15:22;;;;;;;7.70;2.78;;;12.80;99.90;;;;;;5017490;28;20028;-75
2022/07/04 00:17:49;;;;;;;4.57;2.55;;;12.80;99.90;;;;;;5020569;28;20025;-74
2022/07/04 00:20:14;;;;;;;6.18;2.67;;;12.80;99.90;;;;;;5016269;28;20049;-75
2022/07/04 00:22:40;;;;;;;5.10;2.28;;;12.70;99.90;;;;;;5022213;28;21152;-76
2022/07/04 00:25:06;;;;;;;7.30;2.50;;;12.70;99.90;;;;;;5018009;28;20033;-75
2022/07/04 00:27:32;;;;;;;7.95;3.47;;;12.70;99.90;;;;;;5017244;28;20057;-74
2022/07/04 00:29:57;;;;;;;5.60;2.58;;;12.60;99.90;;;;;;5016817;28;20108;-74
2022/07/04 00:32:23;;;;;;;3.97;2.50;;;12.60;99.90;;;;;;5022398;28;20033;-74
2022/07/04 00:34:49;;;;;;;4.05;2.53;;;12.60;99.90;;;;;;5021207;28;20473;-74
2022/07/04 00:37:14;;;;;;;4.32;2.22;;;12.50;99.90;;;;;;5021229;28;20576;-76
2022/07/04 00:39:40;;;;;;;3.45;1.67;;;12.50;99.90;;;;;;5018127;28;20101;-74
2022/07/04 00:42:06;;;;;;;3.65;2.03;;;12.50;99.90;;;;;;5019407;28;20029;-74
2022/07/04 00:44:35;;;;;;;3.33;1.50;;;12.50;99.90;;;;;;5017975;28;20025;-74
2022/07/04 00:47:00;;;;;;;5.65;2.17;;;12.40;99.90;;;;;;5017094;28;20045;-74
2022/07/04 00:49:26;;;;;;;5.90;2.28;;;12.40;99.90;;;;;;5017922;28;20044;-74
2022/07/04 00:51:51;;;;;;;4.32;2.40;;;12.40;99.90;;;;;;5021294;28;20036;-75
2022/07/04 00:54:18;;;;;;;4.70;2.95;;;12.40;99.90;;;;;;5018318;28;20400;-74
2022/07/04 00:56:44;;;;;;;7.63;3.25;;;12.40;99.90;;;;;;5019719;28;20164;-74
2022/07/04 00:59:11;;;;;;;4.05;2.65;;;12.40;99.90;;;;;;5020141;28;20493;-75
2022/07/04 01:01:37;;;;;;;4.82;2.65;;;12.30;99.90;;;;;;5017119;28;20036;-74
2022/07/04 01:04:04;;;;;;;7.95;3.58;;;12.30;99.90;;;;;;5020158;28;20068;-75
2022/07/04 01:06:31;;;;;;;8.25;3.45;;;12.30;99.90;;;;;;5017774;28;20025;-75
2022/07/04 01:08:56;;;;;;;8.07;4.32;;;12.30;99.90;;;;;;5020112;28;20044;-74
2022/07/04 01:11:22;;;;;;;5.10;3.45;;;12.30;99.90;;;;;;5017836;28;20382;-74
2022/07/04 01:13:48;;;;;;;7.10;3.88;;;12.20;99.90;;;;;;5018734;28;20947;-74
2022/07/04 01:16:13;;;;;;;6.35;3.75;;;12.20;99.90;;;;;;5016870;28;20028;-74
2022/07/04 01:18:39;;;;;;;6.07;2.83;;;12.20;99.90;;;;;;5023398;28;20029;-74
2022/07/04 01:21:06;;;;;;;5.43;3.65;;;12.20;99.90;;;;;;5017647;28;20025;-74
2022/07/04 01:23:31;;;;;;;4.45;2.40;;;12.20;99.90;;;;;;5019704;28;20036;-75
2022/07/04 01:25:59;;;;;;;5.25;2.42;;;12.20;99.90;;;;;;5015977;28;20028;-74
2022/07/04 01:28:25;;;;;;;2.15;1.08;;;12.10;99.90;;;;;;5023241;28;20079;-74
2022/07/04 01:30:52;;;;;;;3.80;1.00;;;12.10;99.90;;;;;;5019041;28;20053;-74
2022/07/04 01:33:17;;;;;;;4.53;2.10;;;12.10;99.90;;;;;;5017876;28;20901;-75
2022/07/04 01:35:44;;;;;;;4.78;3.10;;;12.10;99.90;;;;;;5023001;28;20495;-74
2022/07/04 01:38:10;;;;;;;4.78;3.17;;;12.10;99.90;;;;;;5034789;28;20045;-74
2022/07/04 01:40:35;;;;;;;7.18;4.00;;;12.00;99.90;;;;;;5018743;28;20044;-72
2022/07/04 01:43:01;;;;;;;7.00;3.75;;;12.00;99.90;;;;;;5025441;28;20080;-73
2022/07/04 01:45:27;;;;;;;7.95;3.70;;;12.00;99.90;;;;;;5018315;28;22226;-73
2022/07/04 01:47:52;;;;;;;8.68;3.83;;;12.00;99.90;;;;;;5016060;28;20128;-73
2022/07/04 01:50:18;;;;;;;7.68;3.67;;;12.00;99.90;;;;;;5015452;28;20043;-73
2022/07/04 01:52:44;;;;;;;5.93;4.00;;;12.00;99.90;;;;;;5015136;28;20116;-72
2022/07/04 01:55:10;;;;;;;5.38;3.85;;;12.00;99.90;;;;;;5015982;28;20057;-72
2022/07/04 01:57:36;;;;;;;9.18;4.63;;;12.00;99.90;;;;;;5017235;28;20084;-72
2022/07/04 02:02:52;;;;;;;6.57;4.50;;;12.00;99.90;;;;;;5012447;28;20072;-73
2022/07/04 02:05:18;;;;;;;5.97;4.20;;;12.00;99.90;;;;;;5012372;28;20116;-73
2022/07/04 02:07:44;;;;;;;8.43;4.75;;;11.90;99.90;;;;;;5022563;28;20048;-73
2022/07/04 02:10:10;;;;;;;2.92;1.80;;;12.00;99.90;;;;;;5015829;28;20029;-73
2022/07/04 02:15:41;;;;;;;7.28;3.33;;;11.90;99.90;;;;;;5033090;28;20040;-73
2022/07/04 02:18:09;;;;;;;6.35;3.50;;;11.90;99.90;;;;;;5033259;28;20631;-72
2022/07/04 02:20:36;;;;;;;7.45;3.45;;;11.90;99.90;;;;;;5021976;28;20042;-73
2022/07/04 02:23:03;;;;;;;4.65;3.47;;;11.80;99.90;;;;;;5016941;28;20024;-74
2022/07/04 02:25:29;;;;;;;6.00;3.28;;;11.90;99.90;;;;;;5011191;28;20022;-73
2022/07/04 02:28:14;;;;;;;8.55;4.50;;;11.80;99.90;;;;;;5010463;28;20036;-73
2022/07/04 02:30:40;;;;;;;4.38;2.90;;;11.80;99.90;;;;;;5019041;28;20033;-72
2022/07/04 02:33:05;;;;;;;3.40;2.20;;;11.80;99.90;;;;;;5013721;28;20057;-73
2022/07/04 02:35:31;;;;;;;5.70;2.50;;;11.70;99.90;;;;;;5012649;28;20036;-73
2022/07/04 02:37:56;;;;;;;3.40;1.90;;;11.70;99.90;;;;;;5017569;28;20061;-73
2022/07/04 02:40:22;;;;;;;5.47;2.70;;;11.70;99.90;;;;;;5012553;28;20029;-73
2022/07/04 02:42:47;;;;;;;4.80;3.30;;;11.60;99.90;;;;;;5020312;28;20033;-73
2022/07/04 02:45:13;;;;;;;6.40;3.97;;;11.60;99.90;;;;;;5011253;28;20037;-73
2022/07/04 02:47:38;;;;;;;8.50;3.85;;;11.60;99.90;;;;;;5030832;28;20115;-74
2022/07/04 02:50:04;;;;;;;6.55;4.03;;;11.60;99.90;;;;;;5010082;28;20159;-73
2022/07/04 02:52:30;;;;;;;5.47;3.72;;;11.60;99.90;;;;;;5014834;28;20100;-73
2022/07/04 02:54:56;;;;;;;7.22;4.43;;;11.60;99.90;;;;;;5029376;28;20516;-73
2022/07/04 02:57:21;;;;;;;8.13;4.80;;;11.60;99.90;;;;;;5040587;28;20036;-73
2022/07/04 02:59:47;;;;;;;12.15;5.50;;;11.60;99.90;;;;;;5035262;28;20734;-73
2022/07/04 03:02:12;;;;;;;9.00;4.93;;;11.60;99.90;;;;;;5049635;28;20047;-73
2022/07/04 03:04:39;;;;;;;8.00;5.00;;;11.60;99.90;;;;;;5012327;28;20029;-73
2022/07/04 03:07:06;;;;;;;9.88;4.78;;;11.60;99.90;;;;;;5015441;28;20053;-73
2022/07/04 03:09:32;;;;;;;7.82;4.88;;;11.60;99.90;;;;;;5012569;28;20057;-73
2022/07/04 03:11:57;;;;;;;7.85;4.93;;;11.60;99.90;;;;;;5012789;28;20548;-74
2022/07/04 03:14:23;;;;;;;9.57;5.13;;;11.60;99.90;;;;;;5011252;28;20059;-73
2022/07/04 03:16:48;;;;;;;9.15;4.80;;;11.60;99.90;;;;;;5018761;28;20044;-74
2022/07/04 03:19:15;;;;;;;5.07;4.00;;;11.60;99.90;;;;;;5024863;28;20044;-72
2022/07/04 03:21:40;;;;;;;9.43;4.75;;;11.60;99.90;;;;;;5018299;28;20165;-73
2022/07/04 03:24:08;;;;;;;7.05;4.53;;;11.60;99.90;;;;;;5015885;28;20115;-73
2022/07/04 03:26:33;;;;;;;7.00;4.63;;;11.60;99.90;;;;;;5015860;28;20028;-73
2022/07/04 03:29:00;;;;;;;7.20;5.10;;;11.70;99.90;;;;;;5015621;28;20042;-73
2022/07/04 03:31:27;;;;;;;3.80;3.30;;;11.70;99.90;;;;;;5015409;28;20082;-73
2022/07/04 03:33:53;;;;;;;4.30;3.08;;;11.70;99.90;;;;;;5019448;28;20037;-74
2022/07/04 03:36:19;;;;;;;5.40;3.33;;;11.60;99.90;;;;;;5020473;28;20021;-74
2022/07/04 03:38:45;;;;;;;7.43;3.92;;;11.60;99.90;;;;;;5018392;28;20191;-73
2022/07/04 03:41:11;;;;;;;6.53;4.70;;;11.60;99.90;;;;;;5030075;28;20485;-73
2022/07/04 03:43:37;;;;;;;7.22;5.00;;;11.60;99.90;;;;;;5021281;28;20128;-73
2022/07/04 03:46:03;;;;;;;7.30;4.65;;;11.60;99.90;;;;;;5025791;28;20420;-73
2022/07/04 03:48:29;;;;;;;8.57;5.40;;;11.60;99.90;;;;;;5021403;28;21903;-73
2022/07/04 03:50:54;;;;;;;9.48;5.50;;;11.70;99.90;;;;;;5019999;28;20112;-73
2022/07/04 03:53:20;;;;;;;8.88;5.53;;;11.70;99.90;;;;;;5024425;28;20035;-73
2022/07/04 03:55:47;;;;;;;7.63;5.25;;;11.80;99.90;;;;;;5020548;28;20025;-73
2022/07/04 03:58:12;;;;;;;8.80;5.47;;;11.80;99.90;;;;;;5018867;28;20400;-74
2022/07/04 04:00:38;;;;;;;9.23;4.97;;;11.80;99.90;;;;;;5023687;28;20029;-73
2022/07/04 04:05:26;;;;;;;9.70;5.60;;;11.80;99.90;;;;;;5019449;28;20686;-74
2022/07/04 04:05:49;;;;;;;13.35;6.47;;;11.90;99.90;;;;;;5019466;28;20580;-74
2022/07/04 04:08:14;;;;;;;10.15;6.00;;;11.90;99.90;;;;;;5021821;28;20049;-73
2022/07/04 04:10:40;;;;;;;9.25;6.43;;;12.00;99.90;;;;;;5016083;28;20029;-73
2022/07/04 04:13:06;;;;;;;12.60;6.13;;;12.00;99.90;;;;;;5022394;28;20037;-73
2022/07/04 04:15:31;;;;;;;10.60;6.03;;;12.10;99.90;;;;;;5022263;28;20179;-73
2022/07/04 04:17:57;;;;;;;12.05;6.18;;;12.10;99.90;;;;;;5020116;28;20075;-73
2022/07/04 04:20:22;;;;;;;8.45;6.50;;;12.20;99.90;;;;;;5018419;28;20084;-73
2022/07/04 04:22:49;;;;;;;11.23;6.90;;;12.30;99.90;;;;;;5023859;28;20048;-73
2022/07/04 04:25:16;;;;;;;11.05;5.95;;;12.30;99.90;;;;;;5019209;28;20029;-74
2022/07/04 04:27:41;;;;;;;13.63;7.22;;;12.40;99.90;;;;;;5018206;28;20029;-73
2022/07/04 04:30:07;;;;;;;9.98;5.78;;;12.40;99.90;;;;;;5021326;28;20049;-73
2022/07/04 04:32:33;;;;;;;8.32;5.65;;;12.50;99.90;;;;;;5019891;28;22177;-73
2022/07/04 04:34:59;;;;;;;11.27;6.18;;;12.60;99.90;;;;;;5021669;28;20102;-73
2022/07/04 04:37:24;;;;;;;11.10;6.60;;;12.70;99.90;;;;;;5024846;28;20044;-73
2022/07/04 04:39:50;;;;;;;7.97;6.18;;;12.70;99.90;;;;;;5020234;28;20033;-75
2022/07/04 04:42:15;;;;;;;9.35;6.70;;;12.80;99.90;;;;;;5021426;28;20033;-74
2022/07/04 04:44:41;;;;;;;10.50;7.22;;;12.90;99.90;;;;;;5033214;28;20038;-73
2022/07/04 04:47:06;;;;;;;10.40;7.00;;;12.90;99.90;;;;;;5028772;28;20044;-74
2022/07/04 04:49:32;;;;;;;10.40;6.70;;;13.00;99.90;;;;;;5018855;28;20048;-74
2022/07/04 04:51:57;;;;;;;9.95;6.50;;;13.10;99.90;;;;;;5019993;28;22921;-73
2022/07/04 04:54:23;;;;;;;12.55;6.80;;;13.10;99.90;;;;;;5019049;28;20033;-73
2022/07/04 04:56:48;;;;;;;12.40;7.07;;;13.20;99.90;;;;;;5020598;28;20041;-73
2022/07/04 04:59:14;;;;;;;8.00;5.90;;;13.40;99.90;;;;;;5019351;28;20107;-74
2022/07/04 05:01:39;;;;;;;13.60;5.53;;;13.60;99.90;;;;;;5020211;28;20028;-74
2022/07/04 05:04:05;;;;;;;7.05;4.95;;;13.90;99.90;;;;;;5019132;28;20029;-74
2022/07/04 05:06:30;;;;;;;6.72;4.45;;;14.30;99.90;;;;;;5023135;28;20040;-73
2022/07/04 05:08:56;;;;;;;10.20;5.78;;;14.60;99.90;;;;;;5018022;28;20135;-73
2022/07/04 05:11:21;;;;;;;6.78;3.83;;;14.90;99.90;;;;;;5033789;28;20100;-73
2022/07/04 05:13:47;;;;;;;10.02;3.38;;;15.30;99.90;;;;;;5021404;28;20508;-73
2022/07/04 05:16:13;;;;;;;5.88;2.75;;;15.60;99.90;;;;;;5023559;28;20496;-74
2022/07/04 05:18:38;;;;;;;5.32;2.53;;;16.00;99.90;;;;;;5018210;28;20138;-74
2022/07/04 05:21:04;;;;;;;5.57;2.72;;;16.30;99.90;;;;;;5018905;28;20037;-74
2022/07/04 05:23:30;;;;;;;6.85;2.85;;;16.60;99.90;;;;;;5022637;28;20137;-74
2022/07/04 05:25:55;;;;;;;5.80;2.47;;;16.80;99.90;;;;;;5016592;28;20029;-73
2022/07/04 05:28:21;;;;;;;6.45;2.28;;;17.10;99.90;;;;;;5016618;28;20033;-74
2022/07/04 05:30:46;;;;;;;3.28;2.08;;;17.40;99.90;;;;;;5024064;28;20497;-74
2022/07/04 05:33:12;;;;;;;5.03;2.13;;;17.60;99.90;;;;;;5015664;28;20520;-73
2022/07/04 05:35:37;;;;;;;5.45;2.20;;;17.90;99.90;;;;;;5014979;28;20107;-74
2022/07/04 05:38:03;;;;;;;6.65;2.17;;;18.10;99.90;;;;;;5024764;28;20159;-74
2022/07/04 05:40:29;;;;;;;5.32;1.73;;;18.30;99.90;;;;;;5028154;28;20120;-74
2022/07/04 05:42:56;;;;;;;5.15;1.33;;;18.50;99.90;;;;;;5040297;28;20109;-74
2022/07/04 05:45:21;;;;;;;5.95;1.75;;;18.80;99.90;;;;;;5027716;28;20038;-74
2022/07/04 05:47:47;;;;;;;7.63;2.10;;;19.00;99.90;;;;;;5036324;28;20035;-73
2022/07/04 05:50:13;;;;;;;7.90;1.80;;;19.10;99.90;;;;;;5030246;28;20088;-73
2022/07/04 05:52:38;;;;;;;4.93;2.03;;;19.20;99.90;;;;;;5035669;28;20025;-74
2022/07/04 05:55:06;;;;;;;3.45;1.67;;;19.30;99.90;;;;;;5038352;28;20049;-74
2022/07/04 05:57:31;;;;;;;7.00;2.28;;;19.20;99.90;;;;;;5040013;28;20367;-74
2022/07/04 05:59:57;;;;;;;7.00;2.28;;;19.00;99.90;;;;;;5045920;28;20072;-72
2022/07/04 06:02:22;;;;;;;7.32;2.72;;;19.00;99.90;;;;;;5035907;28;20075;-74
2022/07/04 06:04:48;;;;;;;6.15;1.85;;;18.90;99.90;;;;;;5040728;28;20063;-73
2022/07/04 06:07:13;;;;;;;9.75;2.60;;;19.00;99.90;;;;;;5047897;28;20512;-73
2022/07/04 06:09:39;;;;;;;7.25;3.15;;;19.10;99.90;;;;;;5037324;28;20515;-73
2022/07/04 06:12:05;;;;;;;5.70;2.17;;;19.20;99.90;;;;;;5037213;28;20393;-75
2022/07/04 06:14:31;;;;;;;5.82;2.13;;;19.10;99.90;;;;;;5036343;28;20037;-75
2022/07/04 06:16:56;;;;;;;4.57;2.45;;;19.10;99.90;;;;;;5031917;28;20032;-75
2022/07/04 06:19:22;;;;;;;6.82;2.33;;;19.00;99.90;;;;;;5031620;28;20108;-75
2022/07/04 06:21:47;;;;;;;5.57;2.17;;;19.00;99.90;;;;;;5035636;28;20057;-75
2022/07/04 06:24:14;;;;;;;10.02;3.05;;;19.00;99.90;;;;;;5036335;28;20036;-76
2022/07/04 06:26:39;;;;;;;4.78;2.10;;;19.00;99.90;;;;;;5031922;28;20041;-75
2022/07/04 06:29:05;;;;;;;7.40;3.10;;;19.10;99.90;;;;;;5034991;28;20037;-75
2022/07/04 06:31:31;;;;;;;4.90;2.58;;;19.10;99.90;;;;;;5033291;28;20393;-75
2022/07/04 06:36:40;;;;;;;7.57;2.42;;;19.00;99.90;;;;;;5032664;28;20052;-75
2022/07/04 06:39:06;;;;;;;6.32;2.53;;;19.00;99.90;;;;;;5046743;28;20037;-74
2022/07/04 06:41:32;;;;;;;7.65;2.40;;;19.20;99.90;;;;;;5050009;28;20049;-75
2022/07/04 06:43:57;;;;;;;6.40;2.63;;;19.20;99.90;;;;;;5033447;28;20029;-75
2022/07/04 06:46:23;;;;;;;7.75;2.75;;;19.10;99.90;;;;;;5048730;28;20021;-74
2022/07/04 06:48:49;;;;;;;4.70;2.20;;;19.10;99.90;;;;;;5036851;28;20050;-74
2022/07/04 06:51:14;;;;;;;5.45;2.50;;;19.00;99.90;;;;;;5037196;28;20029;-75
2022/07/04 06:53:45;;;;;;;6.85;3.25;;;19.00;99.90;;;;;;5034952;28;20026;-75
2022/07/04 06:56:11;;;;;;;6.82;3.03;;;19.00;99.90;;;;;;5031203;28;20029;-75
2022/07/04 06:58:36;;;;;;;6.20;2.97;;;18.90;99.90;;;;;;5031486;28;20033;-75
2022/07/04 07:01:02;;;;;;;6.82;2.67;;;19.10;99.90;;;;;;5035954;28;20027;-76
2022/07/04 07:03:28;;;;;;;8.93;3.15;;;19.10;99.90;;;;;;5051418;28;20041;-75
2022/07/04 07:05:56;;;;;;;10.85;2.50;;;19.10;99.90;;;;;;5050470;28;20033;-75
2022/07/04 07:08:22;;;;;;;7.88;2.80;;;19.20;99.90;;;;;;5050629;28;20077;-76
2022/07/04 07:10:47;;;;;;;7.93;2.90;;;19.40;99.90;;;;;;5039961;28;20025;-75
2022/07/04 07:13:14;;;;;;;10.50;2.60;;;19.60;99.90;;;;;;5038405;28;20083;-75
2022/07/04 07:15:39;;;;;;;6.72;2.83;;;19.80;99.90;;;;;;5049503;28;20025;-75
2022/07/04 07:18:06;;;;;;;9.15;2.70;;;19.90;99.90;;;;;;5034746;28;20032;-75
2022/07/04 07:20:32;;;;;;;6.55;2.65;;;19.90;99.90;;;;;;5035427;28;20025;-75
2022/07/04 07:22:57;;;;;;;12.20;2.80;;;19.90;99.90;;;;;;5041337;28;20450;-75
2022/07/04 07:25:23;;;;;;;8.30;3.30;;;19.80;99.90;;;;;;5038624;28;20071;-75
2022/07/04 07:27:48;;;;;;;9.15;2.95;;;19.60;99.90;;;;;;5039825;28;20064;-75
2022/07/04 07:30:14;;;;;;;7.85;2.70;;;19.60;99.90;;;;;;5036926;28;20068;-75
2022/07/04 07:32:39;;;;;;;9.10;3.75;;;19.60;99.90;;;;;;5045870;28;20033;-75
2022/07/04 07:35:05;;;;;;;10.52;3.05;;;19.50;99.90;;;;;;5051236;28;20038;-75
2022/07/04 07:37:31;;;;;;;9.80;4.00;;;19.40;99.90;;;;;;5045752;28;20041;-75
2022/07/04 07:39:56;;;;;;;9.05;3.92;;;19.50;99.90;;;;;;5034434;28;20025;-75
2022/07/04 07:42:25;;;;;;;9.00;2.97;;;19.60;99.90;;;;;;5034800;28;20486;-76
2022/07/04 07:44:51;;;;;;;8.20;3.20;;;19.80;99.90;;;;;;5039100;28;20108;-73
2022/07/04 07:47:17;;;;;;;7.70;2.88;;;19.90;99.90;;;;;;5041180;28;20104;-75
2022/07/04 07:49:44;;;;;;;10.05;2.72;;;20.20;99.90;;;;;;5041024;28;20045;-74
2022/07/04 07:52:10;;;;;;;8.13;3.17;;;20.30;99.90;;;;;;5044913;28;20033;-75
2022/07/04 07:54:35;;;;;;;11.15;4.32;;;20.40;99.90;;;;;;5041711;28;20087;-74
2022/07/04 07:57:01;;;;;;;10.20;3.75;;;20.50;99.90;;;;;;5044017;28;20112;-75
2022/07/04 07:59:26;;;;;;;9.80;3.63;;;20.50;99.90;;;;;;5038630;28;20491;-74
2022/07/04 08:01:52;;;;;;;8.07;3.58;;;20.60;99.90;;;;;;5033784;28;20074;-74
2022/07/04 08:04:37;;;;;;;10.80;3.75;;;20.60;99.90;;;;;;5033910;28;20025;-75
2022/07/04 08:07:11;;;;;;;12.23;3.67;;;20.70;99.90;;;;;;5034198;28;20021;-75
2022/07/04 08:09:37;;;;;;;8.75;4.05;;;20.70;99.90;;;;;;5034252;28;20041;-74
2022/07/04 08:12:04;;;;;;;10.95;4.07;;;20.80;99.90;;;;;;5041733;28;20017;-75
2022/07/04 08:14:30;;;;;;;9.95;4.00;;;20.80;99.90;;;;;;5035266;28;20037;-74
2022/07/04 08:16:57;;;;;;;10.13;3.92;;;20.90;99.90;;;;;;5054152;28;20024;-75
2022/07/04 08:19:24;;;;;;;6.28;3.03;;;20.90;99.90;;;;;;5052412;28;20508;-75
2022/07/04 08:21:50;;;;;;;8.77;3.13;;;21.00;99.90;;;;;;5044675;28;20032;-74
2022/07/04 08:24:16;;;;;;;8.50;2.60;;;21.20;99.90;;;;;;5034834;28;20393;-75
2022/07/04 08:26:42;;;;;;;7.97;2.90;;;21.40;99.90;;;;;;5035617;28;20018;-74
2022/07/04 08:29:08;;;;;;;7.75;3.50;;;21.60;99.90;;;;;;5033861;28;20034;-74
2022/07/04 08:31:34;;;;;;;8.07;3.15;;;21.60;99.90;;;;;;5046535;28;20026;-74
2022/07/04 08:33:59;;;;;;;8.30;2.70;;;21.70;99.90;;;;;;5047679;28;20385;-75
2022/07/04 08:36:25;;;;;;;8.10;2.70;;;21.80;99.90;;;;;;5052380;28;20381;-74
2022/07/04 08:38:50;;;;;;;8.88;2.75;;;21.90;99.90;;;;;;5046807;28;20112;-74
2022/07/04 08:41:17;;;;;;;7.40;2.15;;;22.00;99.90;;;;;;5047382;28;20025;-75
2022/07/04 08:43:45;;;;;;;5.68;1.95;;;22.20;99.90;;;;;;5033707;28;20065;-74
2022/07/04 08:46:12;;;;;;;8.98;2.30;;;22.20;99.90;;;;;;5033291;28;20112;-74
2022/07/04 08:48:41;;;;;;;6.80;2.47;;;22.20;99.90;;;;;;5040765;28;20039;-75
2022/07/04 08:51:15;;;;;;;7.28;2.05;;;22.00;99.90;;;;;;5049302;28;20024;-74
2022/07/04 08:53:49;;;;;;;4.93;2.80;;;21.90;99.90;;;;;;5033544;28;20057;-74
2022/07/04 08:58:59;;;;;;;9.10;2.40;;;22.00;99.90;;;;;;5033209;28;20044;-74
2022/07/04 09:01:26;;;;;;;6.93;2.78;;;22.20;99.90;;;;;;5035182;28;20389;-74
2022/07/04 09:03:53;;;;;;;6.22;1.90;;;22.10;99.90;;;;;;5042475;28;20017;-73
2022/07/04 09:06:19;;;;;;;6.38;1.90;;;22.10;99.90;;;;;;5051060;28;20435;-74
2022/07/04 09:08:45;;;;;;;5.22;1.67;;;22.30;99.90;;;;;;5044337;28;20037;-74
2022/07/04 09:11:12;;;;;;;7.57;1.63;;;22.40;99.90;;;;;;5037907;28;20059;-74
2022/07/04 09:13:38;;;;;;;9.60;2.35;;;22.40;99.40;;;;;;5037149;28;20033;-74
2022/07/04 09:16:03;;;;;;;6.32;1.48;;;22.30;99.10;;;;;;5041929;28;20494;-74
2022/07/04 09:18:32;;;;;;;4.63;1.58;;;22.40;99.30;;;;;;5042221;28;20044;-74
2022/07/04 09:21:09;;;;;;;9.20;1.50;;;22.70;99.00;;;;;;5035724;28;20503;-73
2022/07/04 09:23:38;;;;;;;6.78;1.00;;;22.70;98.30;;;;;;5033884;28;20075;-74
2022/07/04 09:26:21;;;;;;;4.53;1.20;;;22.80;98.10;;;;;;5040263;28;20485;-74
2022/07/04 09:28:58;;;;;;;5.13;1.65;;;22.60;97.70;;;;;;5032964;28;20037;-74
2022/07/04 09:31:28;;;;;;;6.43;1.80;;;22.40;98.00;;;;;;5032535;28;20025;-74
2022/07/04 09:33:55;;;;;;;5.45;1.88;;;22.20;98.10;;;;;;5034656;28;20021;-74
2022/07/04 09:36:26;;;;;;;8.25;1.30;;;22.10;98.20;;;;;;5034230;28;20489;-74
2022/07/04 09:39:09;;;;;;;5.75;1.10;;;21.80;98.50;;;;;;5035780;28;20059;-74
2022/07/04 09:42:01;;;;;;;6.15;0.90;;;21.60;98.90;;;;;;5031866;28;20037;-74
2022/07/04 09:44:28;;;;;;;;;;;21.50;99.40;;;;;;5051305;28;20473;-74
2022/07/04 09:46:54;;;;;;;8.38;1.52;;;21.50;99.50;;;;;;5042478;28;19913;-74
2022/07/04 09:49:21;;;;;;;4.97;1.70;;;21.60;99.30;;;;;;5031794;28;20099;-73
2022/07/04 09:51:49;;;;;;;10.85;1.92;;;21.80;99.40;;;;;;5034602;28;20424;-73
2022/07/04 09:54:21;;;;;;;6.13;1.20;;;22.10;99.30;;;;;;5031872;28;20469;-76
2022/07/04 09:56:49;;;;;;;6.68;1.30;;;22.30;99.40;;;;;;5033958;28;20125;-76
2022/07/04 09:59:14;;;;;;;10.13;1.40;;;22.50;99.30;;;;;;5035814;28;20083;-76
2022/07/04 10:01:40;;;;;;;5.45;1.25;;;22.60;98.90;;;;;;5038986;28;20868;-76
2022/07/04 10:04:07;;;;;;;4.05;1.25;;;22.60;98.90;;;;;;5034472;28;20041;-76
2022/07/04 10:06:34;;;;;;;7.20;2.53;;;22.70;99.00;;;;;;5045085;28;20420;-76
2022/07/04 10:09:17;;;;;;;4.40;1.45;;;22.80;98.60;;;;;;5041698;28;20044;-76
2022/07/04 10:11:44;;;;;;;7.20;1.45;;;22.80;98.40;;;;;;5038914;28;20017;-76
2022/07/04 10:14:12;;;;;;;5.82;1.27;;;22.80;98.60;;;;;;5042728;28;20025;-76
2022/07/04 10:16:39;;;;;;;6.50;1.00;;;23.00;98.40;;;;;;5043814;28;20117;-76
2022/07/04 10:19:06;;;;;;;3.95;1.05;;;23.30;97.60;;;;;;5051685;28;20442;-76
2022/07/04 10:21:32;;;;;;;4.72;1.10;;;23.40;97.00;;;;;;5052064;28;20112;-76
2022/07/04 10:23:58;;;;;;;7.40;1.20;;;23.60;96.40;;;;;;5051324;28;20025;-76
2022/07/04 10:26:24;;;;;;;7.35;1.33;;;23.70;95.90;;;;;;5049546;28;20082;-76
2022/07/04 10:28:52;;;;;;;5.90;1.00;;;23.80;95.60;;;;;;5048684;28;20112;-76
2022/07/04 10:31:22;;;;;;;5.53;1.02;;;23.80;95.30;;;;;;5031397;28;20029;-76
2022/07/04 10:33:48;;;;;;;4.70;1.15;;;23.50;95.50;;;;;;5036594;28;20112;-76
2022/07/04 10:36:22;;;;;;;7.60;1.30;;;23.20;95.70;;;;;;5041142;28;20029;-75
2022/07/04 10:38:54;;;;;;;4.88;0.90;;;22.90;95.90;;;;;;5031693;28;20501;-76
2022/07/04 10:41:21;;;;;;;7.43;0.80;;;22.60;95.90;;;;;;5045417;28;20036;-76
2022/07/04 10:44:02;;;;;;;4.45;1.23;;;22.50;95.90;;;;;;5042158;28;20112;-76
2022/07/04 10:46:29;;;;;;;4.35;1.40;;;22.30;95.80;;;;;;5036206;28;20025;-76
2022/07/04 10:49:00;;;;;;;5.35;1.08;;;22.10;96.10;;;;;;5035076;28;20033;-74
2022/07/04 10:51:42;;;;;;;4.53;1.38;;;22.10;96.30;;;;;;5038936;28;20040;-74
2022/07/04 10:54:31;;;;;;;4.75;0.98;;;22.40;96.40;;;;;;5031271;28;20025;-74
2022/07/04 10:57:17;;;;;;;6.97;1.52;;;22.70;96.20;;;;;;5041176;28;20107;-74
2022/07/04 11:00:05;;;;;;;3.22;0.52;;;22.90;95.50;;;;;;5041480;28;20021;-74
2022/07/04 11:02:33;;;;;;;2.92;0.60;;;23.10;95.20;;;;;;5044887;28;20485;-74
2022/07/04 11:05:06;;;;;;;2.78;0.90;;;23.20;94.90;;;;;;5037552;28;20030;-75
2022/07/04 11:07:40;;;;;;;7.18;0.98;;;23.20;94.40;;;;;;5034586;28;20036;-76
2022/07/04 11:12:55;;;;;;;2.67;0.60;;;22.90;94.50;;;;;;5031016;28;20539;-75
2022/07/04 11:15:32;;;;;;;2.90;0.52;;;22.80;94.10;;;;;;5031518;28;20029;-74
2022/07/04 11:18:09;;;;;;;2.97;0.60;;;22.90;93.60;;;;;;5045450;28;20075;-74
2022/07/04 11:20:38;;;;;;;4.28;0.45;;;22.90;92.50;;;;;;5041157;28;20037;-74
2022/07/04 11:23:05;;;;;;;2.25;0.55;;;23.00;92.00;;;;;;5032382;28;20017;-74
2022/07/04 11:25:31;;;;;;;2.20;0.50;;;22.90;91.40;;;;;;5037010;28;20029;-74
2022/07/04 11:27:57;;;;;;;1.75;0.50;;;22.90;91.40;;;;;;5046548;28;20041;-73
2022/07/04 11:30:22;;;;;;;4.32;0.60;;;23.00;91.30;;;;;;5045251;28;20099;-74
2022/07/04 11:32:48;;;;;;;2.15;0.40;;;23.20;91.40;;;;;;5040555;28;20029;-74
2022/07/04 11:35:13;;;;;;;1.73;0.40;;;23.20;90.90;;;;;;5042652;28;20029;-74
2022/07/04 11:37:42;;;;;;;3.50;0.40;;;23.10;91.00;;;;;;5036605;28;20140;-74
2022/07/04 11:45:48;;;;;;;2.95;0.80;;;23.20;91.10;;;;;;5037248;28;20032;-74
2022/07/04 11:48:27;;;;;;;1.88;0.40;;;23.10;91.10;;;;;;5037499;28;20491;-74
2022/07/04 11:50:53;;;;;;;2.65;0.50;;;23.00;91.00;;;;;;5049752;28;20096;-74
2022/07/04 11:53:19;;;;;;;2.35;0.45;;;23.10;91.00;;;;;;5048152;28;20033;-75
2022/07/04 11:55:57;;;;;;;2.90;0.32;;;23.10;90.80;;;;;;5030067;28;20036;-74
2022/07/04 11:58:25;;;;;;;2.25;0.50;;;23.10;90.10;;;;;;5046007;28;20032;-74
2022/07/04 12:00:51;;;;;;;2.05;0.40;;;23.00;90.30;;;;;;5034509;28;20025;-74
2022/07/04 12:03:16;;;;;;;3.50;0.60;;;22.90;90.50;;;;;;5036096;28;20033;-74
2022/07/04 12:05:43;;;;;;;3.55;0.47;;;22.90;90.80;;;;;;5049167;28;20469;-74
2022/07/04 12:08:09;;;;;;;3.03;0.40;;;23.10;90.80;;;;;;5048868;28;20481;-74
2022/07/04 12:10:35;;;;;;;3.35;0.60;;;23.10;90.20;;;;;;5035295;28;20050;-74
2022/07/04 12:13:07;;;;;;;2.65;0.40;;;23.10;90.40;;;;;;5045702;28;20041;-74
2022/07/04 12:15:42;;;;;;;2.22;0.50;;;23.20;90.20;;;;;;5044218;28;20075;-75
2022/07/04 12:18:36;;;;;;;2.67;0.45;;;23.30;90.00;;;;;;5044983;28;20052;-75
2022/07/04 12:21:12;;;;;;;1.77;0.40;;;23.30;90.20;;;;;;5033124;28;20037;-76
2022/07/04 12:23:39;;;;;;;2.58;0.40;;;23.40;90.40;;;;;;5046028;28;20033;-75
2022/07/04 12:26:06;;;;;;;2.80;0.80;;;23.60;90.00;;;;;;5053718;28;20025;-75
2022/07/04 12:28:36;;;;;;;1.95;0.52;;;23.80;88.50;;;;;;5048227;28;20110;-75
2022/07/04 12:31:02;;;;;;;4.68;0.40;;;24.00;86.70;;;;;;5037234;28;20017;-75
2022/07/04 12:33:29;;;;;;;3.20;0.50;;;24.00;86.00;;;;;;5040569;28;20503;-75
2022/07/04 12:36:02;;;;;;;1.70;0.30;;;23.90;84.70;;;;;;5038587;28;20088;-75
2022/07/04 12:38:39;;;;;;;1.58;0.40;;;23.90;84.50;;;;;;5036381;28;20128;-75
2022/07/04 12:41:12;;;;;;;2.45;0.47;;;23.90;84.90;;;;;;5033101;28;20108;-75
2022/07/04 12:43:45;;;;;;;1.83;0.40;;;24.00;85.30;;;;;;5041572;28;20077;-74
2022/07/04 12:46:31;;;;;;;2.63;0.47;;;24.20;84.70;;;;;;5040206;28;20056;-75
2022/07/04 12:48:58;;;;;;;2.28;0.30;;;24.40;83.80;;;;;;5032952;28;20513;-75
2022/07/04 12:51:29;;;;;;;3.22;0.50;;;24.40;82.40;;;;;;5033522;28;20026;-74
2022/07/04 12:53:56;;;;;;;1.35;0.43;;;24.30;82.30;;;;;;5041537;28;20384;-74
2022/07/04 12:56:32;;;;;;;3.20;0.95;;;24.30;82.70;;;;;;5045899;28;20475;-75
2022/07/04 12:59:00;;;;;;;1.30;0.50;;;24.20;83.00;;;;;;5036635;28;20099;-74
2022/07/04 13:01:25;;;;;;;1.75;0.47;;;24.20;83.90;;;;;;5037638;28;20083;-74
2022/07/04 13:03:52;;;;;;;1.52;0.40;;;24.30;82.50;;;;;;5037079;28;20025;-74
2022/07/04 13:06:17;;;;;;;1.92;0.40;;;24.30;82.60;;;;;;5034670;28;20025;-74